sensor_id;sensor_type;location;lat;lon;timestamp;P1;durP1;ratioP1;P2;durP2;ratioP2
47804;SDS011;33568;45.286;9.900;2023-04-03T00:01:43;11.20;;;4.97;;
47804;SDS011;33568;45.286;9.900;2023-04-03T00:06:35;7.38;;;5.00;;
47804;SDS011;33568;45.286;9.900;2023-04-03T00:09:02;17.25;;;5.00;;
47804;SDS011;33568;45.286;9.900;2023-04-03T00:13:55;8.55;;;4.97;;
47804;SDS011;33568;45.286;9.900;2023-04-03T00:18:48;7.47;;;4.82;;
47804;SDS011;33568;45.286;9.900;2023-04-03T00:21:14;8.10;;;5.70;;
47804;SDS011;33568;45.286;9.900;2023-04-03T00:23:41;8.25;;;4.95;;
47804;SDS011;33568;45.286;9.900;2023-04-03T00:26:08;9.18;;;5.10;;
47804;SDS011;33568;45.286;9.900;2023-04-03T00:28:34;9.68;;;5.50;;
47804;SDS011;33568;45.286;9.900;2023-04-03T00:31:01;8.52;;;5.78;;
47804;SDS011;33568;45.286;9.900;2023-04-03T00:33:27;9.38;;;6.85;;
47804;SDS011;33568;45.286;9.900;2023-04-03T00:35:54;8.15;;;5.95;;
47804;SDS011;33568;45.286;9.900;2023-04-03T00:38:21;8.82;;;5.25;;
47804;SDS011;33568;45.286;9.900;2023-04-03T00:40:48;17.80;;;6.00;;
47804;SDS011;33568;45.286;9.900;2023-04-03T00:43:16;6.65;;;4.82;;
47804;SDS011;33568;45.286;9.900;2023-04-03T00:45:48;6.30;;;5.50;;
47804;SDS011;33568;45.286;9.900;2023-04-03T00:48:20;7.43;;;5.32;;
47804;SDS011;33568;45.286;9.900;2023-04-03T00:50:58;6.85;;;5.28;;
47804;SDS011;33568;45.286;9.900;2023-04-03T00:53:27;8.70;;;5.68;;
47804;SDS011;33568;45.286;9.900;2023-04-03T00:55:58;10.48;;;6.05;;
47804;SDS011;33568;45.286;9.900;2023-04-03T00:58:48;8.65;;;5.88;;
47804;SDS011;33568;45.286;9.900;2023-04-03T01:01:32;6.20;;;5.60;;
47804;SDS011;33568;45.286;9.900;2023-04-03T01:04:00;10.18;;;6.30;;
47804;SDS011;33568;45.286;9.900;2023-04-03T01:06:29;8.15;;;5.88;;
47804;SDS011;33568;45.286;9.900;2023-04-03T01:09:04;8.77;;;5.80;;
47804;SDS011;33568;45.286;9.900;2023-04-03T01:11:32;8.82;;;6.32;;
47804;SDS011;33568;45.286;9.900;2023-04-03T01:14:00;7.30;;;6.60;;
47804;SDS011;33568;45.286;9.900;2023-04-03T01:16:28;9.25;;;6.60;;
47804;SDS011;33568;45.286;9.900;2023-04-03T01:18:58;9.07;;;6.00;;
47804;SDS011;33568;45.286;9.900;2023-04-03T01:21:45;7.28;;;6.03;;
47804;SDS011;33568;45.286;9.900;2023-04-03T01:24:34;10.95;;;6.05;;
47804;SDS011;33568;45.286;9.900;2023-04-03T01:27:05;9.90;;;5.80;;
47804;SDS011;33568;45.286;9.900;2023-04-03T01:29:34;6.40;;;5.45;;
47804;SDS011;33568;45.286;9.900;2023-04-03T01:32:01;15.80;;;5.57;;
47804;SDS011;33568;45.286;9.900;2023-04-03T01:34:30;8.50;;;6.22;;
47804;SDS011;33568;45.286;9.900;2023-04-03T01:36:58;11.68;;;6.38;;
47804;SDS011;33568;45.286;9.900;2023-04-03T01:39:24;9.70;;;6.57;;
47804;SDS011;33568;45.286;9.900;2023-04-03T01:41:51;11.05;;;7.15;;
47804;SDS011;33568;45.286;9.900;2023-04-03T01:44:28;8.38;;;6.72;;
47804;SDS011;33568;45.286;9.900;2023-04-03T01:46:55;7.63;;;5.85;;
47804;SDS011;33568;45.286;9.900;2023-04-03T01:49:23;13.30;;;7.13;;
47804;SDS011;33568;45.286;9.900;2023-04-03T01:51:50;9.65;;;6.45;;
47804;SDS011;33568;45.286;9.900;2023-04-03T01:54:17;10.32;;;6.32;;
47804;SDS011;33568;45.286;9.900;2023-04-03T01:56:43;9.50;;;6.53;;
47804;SDS011;33568;45.286;9.900;2023-04-03T02:01:36;7.88;;;6.30;;
47804;SDS011;33568;45.286;9.900;2023-04-03T02:04:03;8.48;;;6.55;;
47804;SDS011;33568;45.286;9.900;2023-04-03T02:06:30;7.32;;;5.90;;
47804;SDS011;33568;45.286;9.900;2023-04-03T02:08:57;7.55;;;6.38;;
47804;SDS011;33568;45.286;9.900;2023-04-03T02:13:50;20.33;;;6.65;;
47804;SDS011;33568;45.286;9.900;2023-04-03T02:18:42;7.95;;;6.07;;
47804;SDS011;33568;45.286;9.900;2023-04-03T02:21:09;7.47;;;6.70;;
47804;SDS011;33568;45.286;9.900;2023-04-03T02:26:06;8.45;;;6.72;;
47804;SDS011;33568;45.286;9.900;2023-04-03T02:28:35;10.05;;;5.93;;
47804;SDS011;33568;45.286;9.900;2023-04-03T02:31:03;9.57;;;6.65;;
47804;SDS011;33568;45.286;9.900;2023-04-03T02:33:30;10.35;;;6.30;;
47804;SDS011;33568;45.286;9.900;2023-04-03T02:35:58;9.27;;;7.00;;
47804;SDS011;33568;45.286;9.900;2023-04-03T02:38:25;8.55;;;6.18;;
47804;SDS011;33568;45.286;9.900;2023-04-03T02:40:52;6.93;;;6.22;;
47804;SDS011;33568;45.286;9.900;2023-04-03T02:45:45;9.10;;;7.13;;
47804;SDS011;33568;45.286;9.900;2023-04-03T02:48:12;9.60;;;6.47;;
47804;SDS011;33568;45.286;9.900;2023-04-03T02:50:40;10.20;;;7.43;;
47804;SDS011;33568;45.286;9.900;2023-04-03T02:53:07;8.25;;;7.07;;
47804;SDS011;33568;45.286;9.900;2023-04-03T02:58:00;7.40;;;6.70;;
47804;SDS011;33568;45.286;9.900;2023-04-03T03:02:53;13.48;;;6.90;;
47804;SDS011;33568;45.286;9.900;2023-04-03T03:05:20;12.23;;;7.82;;
47804;SDS011;33568;45.286;9.900;2023-04-03T03:07:47;13.20;;;7.10;;
47804;SDS011;33568;45.286;9.900;2023-04-03T03:10:13;10.88;;;7.18;;
47804;SDS011;33568;45.286;9.900;2023-04-03T03:12:40;11.73;;;7.03;;
47804;SDS011;33568;45.286;9.900;2023-04-03T03:15:07;8.00;;;7.05;;
47804;SDS011;33568;45.286;9.900;2023-04-03T03:17:34;14.55;;;8.32;;
47804;SDS011;33568;45.286;9.900;2023-04-03T03:20:02;11.73;;;8.68;;
47804;SDS011;33568;45.286;9.900;2023-04-03T03:22:30;15.30;;;8.15;;
47804;SDS011;33568;45.286;9.900;2023-04-03T03:24:57;9.10;;;7.72;;
47804;SDS011;33568;45.286;9.900;2023-04-03T03:29:51;8.40;;;6.90;;
47804;SDS011;33568;45.286;9.900;2023-04-03T03:32:17;12.68;;;7.90;;
47804;SDS011;33568;45.286;9.900;2023-04-03T03:34:44;10.77;;;8.02;;
47804;SDS011;33568;45.286;9.900;2023-04-03T03:37:11;21.08;;;8.50;;
47804;SDS011;33568;45.286;9.900;2023-04-03T03:39:37;9.75;;;8.50;;
47804;SDS011;33568;45.286;9.900;2023-04-03T03:42:04;9.30;;;8.30;;
47804;SDS011;33568;45.286;9.900;2023-04-03T03:44:30;11.38;;;7.82;;
47804;SDS011;33568;45.286;9.900;2023-04-03T03:46:57;21.58;;;9.00;;
47804;SDS011;33568;45.286;9.900;2023-04-03T03:49:24;10.43;;;8.05;;
47804;SDS011;33568;45.286;9.900;2023-04-03T03:51:51;10.90;;;8.55;;
47804;SDS011;33568;45.286;9.900;2023-04-03T03:54:17;9.43;;;8.43;;
47804;SDS011;33568;45.286;9.900;2023-04-03T03:56:44;20.13;;;9.93;;
47804;SDS011;33568;45.286;9.900;2023-04-03T04:01:37;12.07;;;8.57;;
47804;SDS011;33568;45.286;9.900;2023-04-03T04:06:31;33.35;;;12.52;;
47804;SDS011;33568;45.286;9.900;2023-04-03T04:09:02;11.77;;;9.93;;
47804;SDS011;33568;45.286;9.900;2023-04-03T04:11:30;12.88;;;9.90;;
47804;SDS011;33568;45.286;9.900;2023-04-03T04:13:58;21.35;;;10.65;;
47804;SDS011;33568;45.286;9.900;2023-04-03T04:16:28;14.35;;;9.13;;
47804;SDS011;33568;45.286;9.900;2023-04-03T04:18:56;14.43;;;9.30;;
47804;SDS011;33568;45.286;9.900;2023-04-03T04:21:23;15.30;;;9.52;;
47804;SDS011;33568;45.286;9.900;2023-04-03T04:23:52;12.82;;;9.10;;
47804;SDS011;33568;45.286;9.900;2023-04-03T04:26:19;18.38;;;8.52;;
47804;SDS011;33568;45.286;9.900;2023-04-03T04:28:46;19.15;;;8.82;;
47804;SDS011;33568;45.286;9.900;2023-04-03T04:31:13;19.02;;;9.80;;
47804;SDS011;33568;45.286;9.900;2023-04-03T04:33:40;25.23;;;10.30;;
47804;SDS011;33568;45.286;9.900;2023-04-03T04:36:10;34.03;;;10.43;;
47804;SDS011;33568;45.286;9.900;2023-04-03T04:38:37;13.30;;;8.55;;
47804;SDS011;33568;45.286;9.900;2023-04-03T04:41:04;16.25;;;8.63;;
47804;SDS011;33568;45.286;9.900;2023-04-03T04:43:31;12.55;;;8.25;;
47804;SDS011;33568;45.286;9.900;2023-04-03T04:46:02;15.57;;;8.40;;
47804;SDS011;33568;45.286;9.900;2023-04-03T04:48:38;9.88;;;8.65;;
47804;SDS011;33568;45.286;9.900;2023-04-03T04:51:06;17.67;;;10.13;;
47804;SDS011;33568;45.286;9.900;2023-04-03T04:53:35;20.35;;;10.32;;
47804;SDS011;33568;45.286;9.900;2023-04-03T04:56:02;17.27;;;9.73;;
47804;SDS011;33568;45.286;9.900;2023-04-03T04:58:30;12.82;;;7.80;;
47804;SDS011;33568;45.286;9.900;2023-04-03T05:00:59;13.13;;;8.40;;
47804;SDS011;33568;45.286;9.900;2023-04-03T05:03:27;13.35;;;7.95;;
47804;SDS011;33568;45.286;9.900;2023-04-03T05:05:53;14.02;;;8.05;;
47804;SDS011;33568;45.286;9.900;2023-04-03T05:08:20;11.25;;;7.93;;
47804;SDS011;33568;45.286;9.900;2023-04-03T05:10:47;14.75;;;9.13;;
47804;SDS011;33568;45.286;9.900;2023-04-03T05:13:16;12.02;;;8.25;;
47804;SDS011;33568;45.286;9.900;2023-04-03T05:15:43;16.35;;;8.55;;
47804;SDS011;33568;45.286;9.900;2023-04-03T05:18:10;14.75;;;8.95;;
47804;SDS011;33568;45.286;9.900;2023-04-03T05:20:37;13.60;;;7.70;;
47804;SDS011;33568;45.286;9.900;2023-04-03T05:23:04;17.17;;;8.45;;
47804;SDS011;33568;45.286;9.900;2023-04-03T05:25:33;13.55;;;8.88;;
47804;SDS011;33568;45.286;9.900;2023-04-03T05:28:00;15.93;;;8.65;;
47804;SDS011;33568;45.286;9.900;2023-04-03T05:30:27;9.77;;;8.45;;
47804;SDS011;33568;45.286;9.900;2023-04-03T05:32:53;12.13;;;8.38;;
47804;SDS011;33568;45.286;9.900;2023-04-03T05:37:59;12.75;;;8.68;;
47804;SDS011;33568;45.286;9.900;2023-04-03T05:40:26;16.10;;;8.70;;
47804;SDS011;33568;45.286;9.900;2023-04-03T05:42:55;21.70;;;9.88;;
47804;SDS011;33568;45.286;9.900;2023-04-03T05:45:24;29.40;;;10.85;;
47804;SDS011;33568;45.286;9.900;2023-04-03T05:47:51;43.30;;;11.65;;
47804;SDS011;33568;45.286;9.900;2023-04-03T05:50:18;27.52;;;11.52;;
47804;SDS011;33568;45.286;9.900;2023-04-03T05:52:50;34.00;;;11.45;;
47804;SDS011;33568;45.286;9.900;2023-04-03T05:55:19;30.95;;;11.13;;
47804;SDS011;33568;45.286;9.900;2023-04-03T05:57:46;59.58;;;11.57;;
47804;SDS011;33568;45.286;9.900;2023-04-03T06:00:13;31.30;;;11.02;;
47804;SDS011;33568;45.286;9.900;2023-04-03T06:02:51;29.30;;;10.48;;
47804;SDS011;33568;45.286;9.900;2023-04-03T06:05:22;21.48;;;11.30;;
47804;SDS011;33568;45.286;9.900;2023-04-03T06:07:50;25.27;;;11.65;;
47804;SDS011;33568;45.286;9.900;2023-04-03T06:10:17;20.63;;;10.52;;
47804;SDS011;33568;45.286;9.900;2023-04-03T06:12:44;30.50;;;11.52;;
47804;SDS011;33568;45.286;9.900;2023-04-03T06:17:40;24.65;;;13.23;;
47804;SDS011;33568;45.286;9.900;2023-04-03T06:20:07;17.40;;;11.57;;
47804;SDS011;33568;45.286;9.900;2023-04-03T06:22:35;18.27;;;10.57;;
47804;SDS011;33568;45.286;9.900;2023-04-03T06:25:02;18.65;;;10.38;;
47804;SDS011;33568;45.286;9.900;2023-04-03T06:27:28;22.92;;;12.15;;
47804;SDS011;33568;45.286;9.900;2023-04-03T06:29:55;18.05;;;9.68;;
47804;SDS011;33568;45.286;9.900;2023-04-03T06:34:49;10.88;;;9.38;;
47804;SDS011;33568;45.286;9.900;2023-04-03T06:37:20;14.52;;;8.88;;
47804;SDS011;33568;45.286;9.900;2023-04-03T06:39:48;16.63;;;8.75;;
47804;SDS011;33568;45.286;9.900;2023-04-03T06:44:55;13.48;;;7.85;;
47804;SDS011;33568;45.286;9.900;2023-04-03T06:47:21;16.73;;;8.07;;
47804;SDS011;33568;45.286;9.900;2023-04-03T06:49:48;17.38;;;7.35;;
47804;SDS011;33568;45.286;9.900;2023-04-03T06:52:14;16.58;;;8.48;;
47804;SDS011;33568;45.286;9.900;2023-04-03T06:54:41;11.00;;;8.07;;
47804;SDS011;33568;45.286;9.900;2023-04-03T06:57:07;17.05;;;8.45;;
47804;SDS011;33568;45.286;9.900;2023-04-03T06:59:34;9.45;;;7.25;;
47804;SDS011;33568;45.286;9.900;2023-04-03T07:02:02;17.67;;;7.80;;
47804;SDS011;33568;45.286;9.900;2023-04-03T07:04:29;11.35;;;7.60;;
47804;SDS011;33568;45.286;9.900;2023-04-03T07:09:22;16.85;;;7.45;;
47804;SDS011;33568;45.286;9.900;2023-04-03T07:14:15;12.10;;;7.28;;
47804;SDS011;33568;45.286;9.900;2023-04-03T07:16:41;8.90;;;5.32;;
47804;SDS011;33568;45.286;9.900;2023-04-03T07:19:08;13.40;;;5.22;;
47804;SDS011;33568;45.286;9.900;2023-04-03T07:21:34;7.20;;;4.85;;
47804;SDS011;33568;45.286;9.900;2023-04-03T07:26:27;8.38;;;4.90;;
47804;SDS011;33568;45.286;9.900;2023-04-03T07:31:20;9.73;;;4.88;;
47804;SDS011;33568;45.286;9.900;2023-04-03T07:33:47;6.45;;;4.68;;
47804;SDS011;33568;45.286;9.900;2023-04-03T07:36:14;6.13;;;4.55;;
47804;SDS011;33568;45.286;9.900;2023-04-03T07:38:43;6.30;;;4.60;;
47804;SDS011;33568;45.286;9.900;2023-04-03T07:41:11;8.68;;;4.88;;
47804;SDS011;33568;45.286;9.900;2023-04-03T07:43:40;17.13;;;4.93;;
47804;SDS011;33568;45.286;9.900;2023-04-03T07:46:08;6.75;;;4.53;;
47804;SDS011;33568;45.286;9.900;2023-04-03T07:48:35;9.63;;;4.22;;
47804;SDS011;33568;45.286;9.900;2023-04-03T07:51:02;10.52;;;4.35;;
47804;SDS011;33568;45.286;9.900;2023-04-03T07:53:30;9.85;;;4.75;;
47804;SDS011;33568;45.286;9.900;2023-04-03T07:55:57;6.28;;;4.10;;
47804;SDS011;33568;45.286;9.900;2023-04-03T07:58:25;5.25;;;4.10;;
47804;SDS011;33568;45.286;9.900;2023-04-03T08:00:51;9.40;;;4.45;;
47804;SDS011;33568;45.286;9.900;2023-04-03T08:03:18;10.15;;;3.67;;
47804;SDS011;33568;45.286;9.900;2023-04-03T08:05:45;8.50;;;4.50;;
47804;SDS011;33568;45.286;9.900;2023-04-03T08:08:18;11.20;;;3.60;;
47804;SDS011;33568;45.286;9.900;2023-04-03T08:10:50;9.82;;;3.80;;
47804;SDS011;33568;45.286;9.900;2023-04-03T08:13:18;5.00;;;3.83;;
47804;SDS011;33568;45.286;9.900;2023-04-03T08:15:46;11.80;;;3.42;;
47804;SDS011;33568;45.286;9.900;2023-04-03T08:18:13;7.28;;;3.55;;
47804;SDS011;33568;45.286;9.900;2023-04-03T08:20:40;7.95;;;3.40;;
47804;SDS011;33568;45.286;9.900;2023-04-03T08:23:08;7.53;;;4.75;;
47804;SDS011;33568;45.286;9.900;2023-04-03T08:25:38;4.68;;;3.40;;
47804;SDS011;33568;45.286;9.900;2023-04-03T08:28:06;7.43;;;3.80;;
47804;SDS011;33568;45.286;9.900;2023-04-03T08:30:34;5.88;;;3.60;;
47804;SDS011;33568;45.286;9.900;2023-04-03T08:33:01;9.88;;;3.90;;
47804;SDS011;33568;45.286;9.900;2023-04-03T08:35:28;6.50;;;3.58;;
47804;SDS011;33568;45.286;9.900;2023-04-03T08:37:55;6.10;;;3.40;;
47804;SDS011;33568;45.286;9.900;2023-04-03T08:40:22;11.82;;;3.45;;
47804;SDS011;33568;45.286;9.900;2023-04-03T08:48:20;4.18;;;2.90;;
47804;SDS011;33568;45.286;9.900;2023-04-03T08:50:53;6.97;;;2.72;;
47804;SDS011;33568;45.286;9.900;2023-04-03T08:53:27;6.72;;;2.60;;
47804;SDS011;33568;45.286;9.900;2023-04-03T08:55:58;3.00;;;2.05;;
47804;SDS011;33568;45.286;9.900;2023-04-03T08:58:30;3.92;;;1.95;;
47804;SDS011;33568;45.286;9.900;2023-04-03T09:01:14;3.13;;;2.00;;
47804;SDS011;33568;45.286;9.900;2023-04-03T09:03:43;6.13;;;2.15;;
47804;SDS011;33568;45.286;9.900;2023-04-03T09:06:14;5.97;;;2.45;;
47804;SDS011;33568;45.286;9.900;2023-04-03T09:11:44;4.63;;;1.95;;
47804;SDS011;33568;45.286;9.900;2023-04-03T09:16:51;3.83;;;2.03;;
47804;SDS011;33568;45.286;9.900;2023-04-03T09:19:37;9.75;;;2.30;;
47804;SDS011;33568;45.286;9.900;2023-04-03T09:22:15;3.17;;;1.45;;
47804;SDS011;33568;45.286;9.900;2023-04-03T09:24:49;4.53;;;1.23;;
47804;SDS011;33568;45.286;9.900;2023-04-03T09:27:27;6.78;;;1.80;;
47804;SDS011;33568;45.286;9.900;2023-04-03T09:29:55;5.30;;;1.85;;
47804;SDS011;33568;45.286;9.900;2023-04-03T09:34:52;6.25;;;1.95;;
47804;SDS011;33568;45.286;9.900;2023-04-03T09:40:31;4.38;;;1.48;;
47804;SDS011;33568;45.286;9.900;2023-04-03T09:43:25;3.83;;;1.40;;
47804;SDS011;33568;45.286;9.900;2023-04-03T09:45:52;2.45;;;1.55;;
47804;SDS011;33568;45.286;9.900;2023-04-03T09:48:20;2.20;;;1.33;;
47804;SDS011;33568;45.286;9.900;2023-04-03T09:51:01;3.00;;;1.58;;
47804;SDS011;33568;45.286;9.900;2023-04-03T09:53:30;3.03;;;1.80;;
47804;SDS011;33568;45.286;9.900;2023-04-03T09:56:03;5.25;;;1.80;;
47804;SDS011;33568;45.286;9.900;2023-04-03T09:58:44;7.28;;;1.90;;
47804;SDS011;33568;45.286;9.900;2023-04-03T10:01:36;8.98;;;2.25;;
47804;SDS011;33568;45.286;9.900;2023-04-03T10:04:38;4.65;;;1.60;;
47804;SDS011;33568;45.286;9.900;2023-04-03T10:07:04;1.83;;;1.65;;
47804;SDS011;33568;45.286;9.900;2023-04-03T10:10:00;2.42;;;1.70;;
47804;SDS011;33568;45.286;9.900;2023-04-03T10:12:41;6.68;;;1.90;;
47804;SDS011;33568;45.286;9.900;2023-04-03T10:15:11;1.60;;;1.33;;
47804;SDS011;33568;45.286;9.900;2023-04-03T10:17:54;7.72;;;1.80;;
47804;SDS011;33568;45.286;9.900;2023-04-03T10:20:32;3.83;;;1.80;;
47804;SDS011;33568;45.286;9.900;2023-04-03T10:23:06;7.10;;;1.73;;
47804;SDS011;33568;45.286;9.900;2023-04-03T10:28:43;2.20;;;1.50;;
47804;SDS011;33568;45.286;9.900;2023-04-03T10:31:14;4.43;;;1.63;;
47804;SDS011;33568;45.286;9.900;2023-04-03T10:47:54;5.75;;;1.55;;
47804;SDS011;33568;45.286;9.900;2023-04-03T11:01:40;1.60;;;1.50;;
47804;SDS011;33568;45.286;9.900;2023-04-03T11:04:09;3.13;;;1.98;;
47804;SDS011;33568;45.286;9.900;2023-04-03T11:06:43;2.75;;;1.75;;
47804;SDS011;33568;45.286;9.900;2023-04-03T11:09:22;3.30;;;1.90;;
47804;SDS011;33568;45.286;9.900;2023-04-03T11:11:56;4.47;;;2.03;;
47804;SDS011;33568;45.286;9.900;2023-04-03T11:14:31;6.15;;;1.70;;
47804;SDS011;33568;45.286;9.900;2023-04-03T11:22:36;2.65;;;1.70;;
47804;SDS011;33568;45.286;9.900;2023-04-03T11:35:49;8.48;;;1.67;;
47804;SDS011;33568;45.286;9.900;2023-04-03T11:38:30;6.32;;;1.75;;
47804;SDS011;33568;45.286;9.900;2023-04-03T11:41:05;6.30;;;2.17;;
47804;SDS011;33568;45.286;9.900;2023-04-03T11:43:33;4.13;;;1.50;;
47804;SDS011;33568;45.286;9.900;2023-04-03T11:46:08;1.77;;;1.35;;
47804;SDS011;33568;45.286;9.900;2023-04-03T11:51:02;3.00;;;1.77;;
47804;SDS011;33568;45.286;9.900;2023-04-03T11:53:54;2.55;;;1.40;;
47804;SDS011;33568;45.286;9.900;2023-04-03T11:56:40;3.75;;;1.50;;
47804;SDS011;33568;45.286;9.900;2023-04-03T12:01:47;2.47;;;1.38;;
47804;SDS011;33568;45.286;9.900;2023-04-03T12:04:15;4.90;;;1.83;;
47804;SDS011;33568;45.286;9.900;2023-04-03T12:09:23;9.07;;;2.42;;
47804;SDS011;33568;45.286;9.900;2023-04-03T12:12:21;3.40;;;1.75;;
47804;SDS011;33568;45.286;9.900;2023-04-03T12:14:47;8.48;;;1.95;;
47804;SDS011;33568;45.286;9.900;2023-04-03T12:17:20;2.80;;;1.60;;
47804;SDS011;33568;45.286;9.900;2023-04-03T12:19:52;7.43;;;2.22;;
47804;SDS011;33568;45.286;9.900;2023-04-03T12:22:19;2.97;;;2.05;;
47804;SDS011;33568;45.286;9.900;2023-04-03T12:24:48;7.50;;;2.28;;
47804;SDS011;33568;45.286;9.900;2023-04-03T12:27:25;6.13;;;1.90;;
47804;SDS011;33568;45.286;9.900;2023-04-03T12:30:05;6.55;;;2.30;;
47804;SDS011;33568;45.286;9.900;2023-04-03T12:35:29;6.45;;;2.00;;
47804;SDS011;33568;45.286;9.900;2023-04-03T12:41:22;3.55;;;1.70;;
47804;SDS011;33568;45.286;9.900;2023-04-03T12:46:43;4.07;;;1.70;;
47804;SDS011;33568;45.286;9.900;2023-04-03T12:49:22;2.28;;;1.73;;
47804;SDS011;33568;45.286;9.900;2023-04-03T12:52:05;3.35;;;1.70;;
47804;SDS011;33568;45.286;9.900;2023-04-03T12:54:51;7.85;;;2.13;;
47804;SDS011;33568;45.286;9.900;2023-04-03T12:57:19;4.10;;;1.95;;
47804;SDS011;33568;45.286;9.900;2023-04-03T12:59:46;6.30;;;2.00;;
47804;SDS011;33568;45.286;9.900;2023-04-03T13:04:46;9.45;;;2.10;;
47804;SDS011;33568;45.286;9.900;2023-04-03T13:07:27;3.60;;;1.88;;
47804;SDS011;33568;45.286;9.900;2023-04-03T13:09:59;9.05;;;2.30;;
47804;SDS011;33568;45.286;9.900;2023-04-03T13:12:27;4.03;;;2.38;;
47804;SDS011;33568;45.286;9.900;2023-04-03T13:14:54;6.30;;;2.05;;
47804;SDS011;33568;45.286;9.900;2023-04-03T13:17:24;9.77;;;1.88;;
47804;SDS011;33568;45.286;9.900;2023-04-03T13:19:51;14.52;;;2.00;;
47804;SDS011;33568;45.286;9.900;2023-04-03T13:25:05;3.20;;;1.65;;
47804;SDS011;33568;45.286;9.900;2023-04-03T13:27:33;9.50;;;1.77;;
47804;SDS011;33568;45.286;9.900;2023-04-03T13:30:01;6.40;;;1.60;;
47804;SDS011;33568;45.286;9.900;2023-04-03T13:32:29;5.50;;;2.00;;
47804;SDS011;33568;45.286;9.900;2023-04-03T13:34:57;9.48;;;2.03;;
47804;SDS011;33568;45.286;9.900;2023-04-03T13:37:31;7.70;;;2.30;;
47804;SDS011;33568;45.286;9.900;2023-04-03T13:40:21;9.05;;;2.15;;
47804;SDS011;33568;45.286;9.900;2023-04-03T13:42:46;6.85;;;2.15;;
47804;SDS011;33568;45.286;9.900;2023-04-03T13:45:29;6.22;;;2.03;;
47804;SDS011;33568;45.286;9.900;2023-04-03T13:48:10;11.52;;;2.80;;
47804;SDS011;33568;45.286;9.900;2023-04-03T13:50:53;7.15;;;2.92;;
47804;SDS011;33568;45.286;9.900;2023-04-03T13:53:23;8.43;;;2.20;;
47804;SDS011;33568;45.286;9.900;2023-04-03T13:55:52;4.20;;;1.95;;
47804;SDS011;33568;45.286;9.900;2023-04-03T13:58:52;6.03;;;1.98;;
47804;SDS011;33568;45.286;9.900;2023-04-03T14:01:22;7.03;;;2.25;;
47804;SDS011;33568;45.286;9.900;2023-04-03T14:03:57;2.97;;;2.20;;
47804;SDS011;33568;45.286;9.900;2023-04-03T14:06:26;10.37;;;2.53;;
47804;SDS011;33568;45.286;9.900;2023-04-03T14:08:53;7.72;;;2.10;;
47804;SDS011;33568;45.286;9.900;2023-04-03T14:11:26;10.55;;;2.47;;
47804;SDS011;33568;45.286;9.900;2023-04-03T14:13:57;9.65;;;2.53;;
47804;SDS011;33568;45.286;9.900;2023-04-03T14:16:30;10.45;;;2.15;;
47804;SDS011;33568;45.286;9.900;2023-04-03T14:19:02;12.07;;;2.40;;
47804;SDS011;33568;45.286;9.900;2023-04-03T14:21:29;9.70;;;2.33;;
47804;SDS011;33568;45.286;9.900;2023-04-03T14:23:56;17.67;;;2.92;;
47804;SDS011;33568;45.286;9.900;2023-04-03T14:26:23;4.85;;;2.10;;
47804;SDS011;33568;45.286;9.900;2023-04-03T14:28:53;5.53;;;1.95;;
47804;SDS011;33568;45.286;9.900;2023-04-03T14:31:21;5.00;;;2.08;;
47804;SDS011;33568;45.286;9.900;2023-04-03T14:33:48;4.18;;;1.75;;
47804;SDS011;33568;45.286;9.900;2023-04-03T14:36:16;4.07;;;1.95;;
47804;SDS011;33568;45.286;9.900;2023-04-03T14:38:48;8.63;;;1.90;;
47804;SDS011;33568;45.286;9.900;2023-04-03T14:41:16;13.10;;;2.42;;
47804;SDS011;33568;45.286;9.900;2023-04-03T14:43:45;6.75;;;2.20;;
47804;SDS011;33568;45.286;9.900;2023-04-03T14:46:16;9.98;;;2.42;;
47804;SDS011;33568;45.286;9.900;2023-04-03T14:48:45;13.27;;;2.47;;
47804;SDS011;33568;45.286;9.900;2023-04-03T14:51:12;5.65;;;2.03;;
47804;SDS011;33568;45.286;9.900;2023-04-03T14:53:40;11.82;;;2.28;;
47804;SDS011;33568;45.286;9.900;2023-04-03T14:56:13;5.32;;;2.20;;
47804;SDS011;33568;45.286;9.900;2023-04-03T14:58:43;6.88;;;2.00;;
47804;SDS011;33568;45.286;9.900;2023-04-03T15:01:10;3.53;;;1.88;;
47804;SDS011;33568;45.286;9.900;2023-04-03T15:03:37;4.68;;;1.77;;
47804;SDS011;33568;45.286;9.900;2023-04-03T15:06:04;8.90;;;2.10;;
47804;SDS011;33568;45.286;9.900;2023-04-03T15:08:31;11.55;;;6.55;;
47804;SDS011;33568;45.286;9.900;2023-04-03T15:10:57;5.40;;;2.15;;
47804;SDS011;33568;45.286;9.900;2023-04-03T15:13:24;9.85;;;5.47;;
47804;SDS011;33568;45.286;9.900;2023-04-03T15:15:51;5.72;;;1.88;;
47804;SDS011;33568;45.286;9.900;2023-04-03T15:18:19;8.20;;;2.08;;
47804;SDS011;33568;45.286;9.900;2023-04-03T15:20:54;7.40;;;2.15;;
47804;SDS011;33568;45.286;9.900;2023-04-03T15:23:21;5.00;;;1.92;;
47804;SDS011;33568;45.286;9.900;2023-04-03T15:25:52;7.72;;;1.80;;
47804;SDS011;33568;45.286;9.900;2023-04-03T15:28:36;9.93;;;1.73;;
47804;SDS011;33568;45.286;9.900;2023-04-03T15:31:05;15.18;;;3.35;;
47804;SDS011;33568;45.286;9.900;2023-04-03T15:33:32;19.40;;;6.38;;
47804;SDS011;33568;45.286;9.900;2023-04-03T15:36:00;13.73;;;4.50;;
47804;SDS011;33568;45.286;9.900;2023-04-03T15:38:27;12.65;;;2.30;;
47804;SDS011;33568;45.286;9.900;2023-04-03T15:40:54;8.50;;;2.15;;
47804;SDS011;33568;45.286;9.900;2023-04-03T15:43:21;3.22;;;1.98;;
47804;SDS011;33568;45.286;9.900;2023-04-03T15:45:48;8.48;;;2.00;;
47804;SDS011;33568;45.286;9.900;2023-04-03T15:48:16;17.17;;;3.10;;
47804;SDS011;33568;45.286;9.900;2023-04-03T15:50:43;9.43;;;2.10;;
47804;SDS011;33568;45.286;9.900;2023-04-03T15:53:10;5.93;;;2.30;;
47804;SDS011;33568;45.286;9.900;2023-04-03T15:55:37;11.57;;;2.45;;
47804;SDS011;33568;45.286;9.900;2023-04-03T15:58:04;5.95;;;2.35;;
47804;SDS011;33568;45.286;9.900;2023-04-03T16:00:31;9.25;;;2.38;;
47804;SDS011;33568;45.286;9.900;2023-04-03T16:03:03;17.20;;;3.03;;
47804;SDS011;33568;45.286;9.900;2023-04-03T16:05:32;9.10;;;2.50;;
47804;SDS011;33568;45.286;9.900;2023-04-03T16:07:59;7.32;;;2.00;;
47804;SDS011;33568;45.286;9.900;2023-04-03T16:10:26;11.98;;;2.65;;
47804;SDS011;33568;45.286;9.900;2023-04-03T16:12:53;8.20;;;2.20;;
47804;SDS011;33568;45.286;9.900;2023-04-03T16:15:20;6.00;;;1.60;;
47804;SDS011;33568;45.286;9.900;2023-04-03T16:17:46;15.52;;;2.30;;
47804;SDS011;33568;45.286;9.900;2023-04-03T16:20:14;9.00;;;2.40;;
47804;SDS011;33568;45.286;9.900;2023-04-03T16:22:41;11.38;;;2.40;;
47804;SDS011;33568;45.286;9.900;2023-04-03T16:25:08;16.17;;;2.42;;
47804;SDS011;33568;45.286;9.900;2023-04-03T16:27:35;5.50;;;2.47;;
47804;SDS011;33568;45.286;9.900;2023-04-03T16:30:02;2.90;;;1.70;;
47804;SDS011;33568;45.286;9.900;2023-04-03T16:32:29;7.07;;;2.10;;
47804;SDS011;33568;45.286;9.900;2023-04-03T16:34:57;14.65;;;2.38;;
47804;SDS011;33568;45.286;9.900;2023-04-03T16:37:24;2.92;;;2.00;;
47804;SDS011;33568;45.286;9.900;2023-04-03T16:39:51;11.02;;;1.98;;
47804;SDS011;33568;45.286;9.900;2023-04-03T16:42:17;13.20;;;1.95;;
47804;SDS011;33568;45.286;9.900;2023-04-03T16:44:44;6.97;;;2.10;;
47804;SDS011;33568;45.286;9.900;2023-04-03T16:49:38;6.18;;;1.85;;
47804;SDS011;33568;45.286;9.900;2023-04-03T16:52:05;9.93;;;2.35;;
47804;SDS011;33568;45.286;9.900;2023-04-03T16:54:31;10.48;;;1.90;;
47804;SDS011;33568;45.286;9.900;2023-04-03T16:56:58;11.30;;;1.98;;
47804;SDS011;33568;45.286;9.900;2023-04-03T16:59:25;6.90;;;2.63;;
47804;SDS011;33568;45.286;9.900;2023-04-03T17:01:51;8.90;;;2.67;;
47804;SDS011;33568;45.286;9.900;2023-04-03T17:06:44;5.75;;;1.60;;
47804;SDS011;33568;45.286;9.900;2023-04-03T17:09:11;10.15;;;2.30;;
47804;SDS011;33568;45.286;9.900;2023-04-03T17:14:04;6.15;;;2.85;;
47804;SDS011;33568;45.286;9.900;2023-04-03T17:16:31;5.60;;;2.25;;
47804;SDS011;33568;45.286;9.900;2023-04-03T17:19:00;7.90;;;2.38;;